Time;durP1;ratioP1;P1;durP2;ratioP2;P2;SDS_P1;SDS_P2;PMS_P1;PMS_P2;Temp;Humidity;BMP_temperature;BMP_pressure;BME280_temperature;BME280_humidity;BME280_pressure;Samples;Min_cycle;Max_cycle;Signal;HPM_P1;HPM_P2
2022/11/25 21:55:27;;;;;;;2.83;2.20;;;;;;;5.63;100.00;97160.41;5040587;27;102151;-62
2022/11/25 21:57:54;;;;;;;4.00;2.00;;;;;;;5.68;100.00;97165.91;5024596;28;105480;-63
2022/11/25 22:00:23;;;;;;;2.80;1.87;;;;;;;5.71;100.00;97170.75;5026628;27;101811;-64
2022/11/25 22:02:51;;;;;;;2.20;1.90;;;;;;;5.68;100.00;97171.97;5025129;28;105544;-64
2022/11/25 22:05:22;;;;;;;3.10;1.87;;;;;;;5.68;100.00;97173.81;5026140;27;101714;-64
2022/11/25 22:07:49;;;;;;;2.10;1.87;;;;;;;5.69;100.00;97175.44;5026223;28;101813;-64
2022/11/25 22:10:17;;;;;;;4.77;2.43;;;;;;;5.61;100.00;97183.53;5025112;28;105414;-64
2022/11/25 22:12:47;;;;;;;3.10;2.00;;;;;;;5.61;100.00;97180.88;5025761;27;103024;-64
2022/11/25 22:15:18;;;;;;;4.13;2.50;;;;;;;5.66;100.00;97189.00;5029761;27;101649;-64
2022/11/25 22:17:45;;;;;;;2.80;2.20;;;;;;;5.71;100.00;97184.78;5026087;27;102589;-64
2022/11/25 22:20:25;;;;;;;4.83;2.60;;;;;;;5.72;100.00;97182.97;5026275;27;102374;-64
2022/11/25 22:22:54;;;;;;;4.73;2.83;;;;;;;5.72;100.00;97182.97;5025052;28;105079;-64
2022/11/25 22:25:21;;;;;;;3.77;2.30;;;;;;;5.73;100.00;97187.22;5025834;28;102461;-64
2022/11/25 22:27:50;;;;;;;4.90;2.37;;;;;;;5.67;100.00;97193.31;5024677;28;101951;-64
2022/11/25 22:30:19;;;;;;;3.47;2.73;;;;;;;5.69;100.00;97194.72;5026192;27;102286;-64
2022/11/25 22:32:56;;;;;;;3.90;2.83;;;;;;;5.76;100.00;97200.00;5025475;27;102428;-64
2022/11/25 22:35:23;;;;;;;4.97;2.97;;;;;;;5.75;100.00;97195.75;5024712;28;101833;-64
2022/11/25 22:37:50;;;;;;;4.10;2.70;;;;;;;5.80;100.00;97196.81;5027416;28;106946;-64
2022/11/25 22:40:17;;;;;;;4.77;2.63;;;;;;;5.80;100.00;97201.25;5024696;28;101868;-64
2022/11/25 22:42:47;;;;;;;5.30;3.33;;;;;;;5.83;100.00;97198.25;5025768;27;102291;-64
2022/11/25 22:45:20;;;;;;;4.83;3.13;;;;;;;5.87;100.00;97191.53;5024120;28;105440;-64
2022/11/25 22:47:48;;;;;;;4.43;2.77;;;;;;;5.88;100.00;97190.50;5026018;28;101736;-64
2022/11/25 22:50:21;;;;;;;5.40;3.13;;;;;;;5.84;100.00;97197.22;5024507;28;103619;-64
2022/11/25 22:52:49;;;;;;;4.07;3.13;;;;;;;5.89;100.00;97197.44;5023732;28;105439;-64
2022/11/25 22:55:20;;;;;;;3.37;2.77;;;;;;;5.81;100.00;97198.44;5025510;27;101931;-64
2022/11/25 22:57:48;;;;;;;3.57;2.87;;;;;;;5.81;100.00;97195.78;5024334;28;105576;-64
2022/11/25 23:00:25;;;;;;;6.13;3.13;;;;;;;5.79;100.00;97196.97;5027100;28;105766;-64
2022/11/25 23:02:56;;;;;;;5.43;3.27;;;;;;;5.84;100.00;97192.72;5024357;28;105325;-64
2022/11/25 23:05:26;;;;;;;6.33;3.20;;;;;;;5.79;100.00;97200.41;5017955;28;105887;-64
2022/11/25 23:07:53;;;;;;;6.07;3.50;;;;;;;5.78;100.00;97200.63;5012193;28;101736;-64
2022/11/25 23:10:21;;;;;;;5.30;3.30;;;;;;;5.78;100.00;97203.28;5012211;28;102294;-64
2022/11/25 23:12:50;;;;;;;4.70;3.50;;;;;;;5.87;100.00;97207.34;5011537;28;102657;-64
2022/11/25 23:15:21;;;;;;;4.93;3.50;;;;;;;5.92;100.00;97212.84;5010729;28;101823;-64
2022/11/25 23:17:50;;;;;;;8.00;3.90;;;;;;;5.89;100.00;97205.34;5012122;28;102313;-64
2022/11/25 23:20:20;;;;;;;6.23;3.50;;;;;;;5.93;100.00;97211.81;5011345;28;102860;-64
2022/11/25 23:22:48;;;;;;;6.40;3.57;;;;;;;5.98;100.00;97214.69;5014034;28;101833;-64
2022/11/25 23:25:17;;;;;;;7.27;4.13;;;;;;;5.97;100.00;97218.34;5010054;28;102510;-64
2022/11/25 23:27:45;;;;;;;6.07;4.17;;;;;;;5.99;100.00;97216.31;5010535;28;101924;-64
2022/11/25 23:30:16;;;;;;;7.77;5.00;;;;;;;6.00;100.00;97217.94;5012093;28;102956;-64
2022/11/25 23:32:44;;;;;;;9.10;5.20;;;;;;;5.96;100.00;97222.00;5011539;28;102654;-64
2022/11/25 23:35:17;;;;;;;7.77;4.90;;;;;;;6.02;100.00;97227.28;5010221;28;101878;-64
2022/11/25 23:37:44;;;;;;;8.27;4.60;;;;;;;5.86;100.00;97224.22;5011487;28;102602;-64
2022/11/25 23:40:19;;;;;;;5.40;4.23;;;;;;;5.86;100.00;97232.13;5011321;28;102557;-64
2022/11/25 23:43:01;;;;;;;5.33;3.80;;;;;;;5.83;100.00;97227.28;5011868;28;101799;-64
2022/11/25 23:45:28;;;;;;;5.60;3.90;;;;;;;5.70;100.00;97235.09;5013541;28;105494;-64
2022/11/25 23:47:57;;;;;;;7.77;4.20;;;;;;;5.72;100.00;97233.91;5010669;28;101887;-64
2022/11/25 23:50:29;;;;;;;4.50;3.47;;;;;;;5.70;100.00;97227.19;5012102;28;102232;-64
2022/11/25 23:53:01;;;;;;;4.67;3.90;;;;;;;5.72;100.00;97230.47;5011735;28;102561;-64
2022/11/25 23:55:31;;;;;;;6.67;4.07;;;;;;;5.76;100.00;97242.22;5011976;28;101891;-64
2022/11/25 23:57:58;;;;;;;5.00;4.50;;;;;;;5.75;100.00;97236.16;5012163;28;102594;-64
